Terminal Aerodrome Forecast
Issued by NWS Cleveland, OH

Home | Current Version | Previous Version | Graphics & Text | Print | Product List | Glossary On
Versions: 1 2 3 4 5 6 7 8 9 10 11 12 13 14 15 16 17 18 19 20 21 22 23
583
FTUS41 KCLE 241741
TAFCAK
TAF
KCAK 241741Z 2418/2518 13008KT P6SM -SHRA SCT009 OVC015
      TEMPO 2418/2422 4SM -RA BR
     FM242200 11012KT 5SM -SHRA BR OVC015
     FM250100 13012KT 3SM -SHRA OVC008
     FM250700 15007KT 4SM BR VCSH OVC008
     FM251400 20007KT 6SM BR VCSH OVC012=

USA.gov is the U.S. government's official web portal to all federal, state and local government web resources and services.